createdAt,value
2022-08-31T00:10:58.312Z,16.40
2022-08-31T00:41:07.218Z,15.83
2022-08-31T01:11:22.885Z,19.00
2022-08-31T01:41:31.401Z,21.10
2022-08-31T02:11:40.670Z,14.27
2022-08-31T02:41:49.400Z,15.83
2022-08-31T03:11:58.887Z,18.20
2022-08-31T03:42:08.399Z,17.70
2022-08-31T04:12:17.998Z,14.83
2022-08-31T04:42:39.875Z,24.97
2022-08-31T05:12:51.930Z,8.43
2022-08-31T05:43:02.599Z,12.40
2022-08-31T06:13:11.290Z,16.10
2022-08-31T06:43:24.166Z,10.27
2022-08-31T07:13:40.343Z,2.10
2022-08-31T07:43:49.267Z,2.45
2022-08-31T08:13:59.179Z,1.88
2022-08-31T08:44:33.158Z,1.67
2022-08-31T09:14:58.384Z,3.70
2022-08-31T09:45:14.144Z,5.03
2022-08-31T10:15:28.962Z,3.33
2022-08-31T10:45:42.644Z,2.78
2022-08-31T11:16:19.261Z,3.78
2022-08-31T11:47:05.971Z,4.30
2022-08-31T12:17:24.390Z,2.88
2022-08-31T12:47:38.703Z,2.53
2022-08-31T13:17:47.718Z,2.90
2022-08-31T13:47:59.374Z,2.20
2022-08-31T14:18:25.040Z,2.38
2022-08-31T14:48:36.812Z,2.05
2022-08-31T15:18:46.603Z,2.72
2022-08-31T15:48:55.481Z,3.55
2022-08-31T16:19:23.173Z,3.08
2022-08-31T16:49:41.423Z,6.30
2022-08-31T17:19:52.354Z,5.40
2022-08-31T17:50:06.019Z,8.98
2022-08-31T18:20:15.564Z,4.32
2022-08-31T18:50:36.451Z,3.85
2022-08-31T19:20:45.255Z,5.78
2022-08-31T19:50:56.966Z,4.40
2022-08-31T20:21:06.351Z,5.45
2022-08-31T20:51:18.310Z,6.10
2022-08-31T21:21:30.124Z,5.80
2022-08-31T21:51:44.018Z,7.57
2022-08-31T22:21:55.859Z,8.20
2022-08-31T22:52:04.563Z,8.20
2022-08-31T23:22:17.587Z,6.23
2022-08-31T23:52:35.035Z,8.05
